Stockton, Alabama
Current Conditions -  °F | °C
As of 7:53 AM on Thursday 29 Jan 2015 (Local Time) from KBFM Reporting Station
Clear Clear  
Wind Chill: 52°   Ceiling: Unl
Heat Index: 52°   Visibility: 10mi
Dew Point: 49°   Wind: 5mph
Humidity: 89%   Direction: 120°ESE
Pressure: 30.29"   Gusts: NA
Location:  31°N, 87.86°W
Report Text: KBFM 291353Z 12004KT 10SM CLR 11/09 A3029 RMK AO2 SLP255 T01110094
Loading
Personal Weather Stations






























Interactive Weather Map New forecast layout! Learn more

10-Day Weather Forecast

Advertisements
Track Severe Weather on mobile